createdAt,value
2023-04-07T00:00:16.544Z,0.0
2023-04-07T00:05:16.553Z,0.0
2023-04-07T00:10:16.437Z,0.0
2023-04-07T00:15:16.626Z,0.0
2023-04-07T00:20:16.437Z,0.0
2023-04-07T00:25:16.678Z,0.0
2023-04-07T00:30:16.976Z,0.0
2023-04-07T00:35:16.804Z,0.0
2023-04-07T00:40:16.505Z,0.0
2023-04-07T00:45:16.625Z,0.0
2023-04-07T00:50:16.525Z,0.0
2023-04-07T00:55:16.671Z,0.0
2023-04-07T01:00:16.735Z,0.0
2023-04-07T01:05:16.636Z,0.0
2023-04-07T01:10:16.694Z,0.0
2023-04-07T01:15:16.850Z,0.0
2023-04-07T01:20:16.603Z,0.0
2023-04-07T01:25:16.663Z,0.0
2023-04-07T01:30:16.688Z,0.0
2023-04-07T01:35:16.969Z,0.0
2023-04-07T01:40:16.653Z,0.0
2023-04-07T01:45:17.039Z,0.0
2023-04-07T01:50:16.721Z,0.0
2023-04-07T01:55:16.961Z,0.0
2023-04-07T02:00:16.692Z,0.0
2023-04-07T02:05:16.761Z,0.0
2023-04-07T02:10:16.882Z,0.0
2023-04-07T02:15:16.898Z,0.0
2023-04-07T02:20:16.776Z,0.0
2023-04-07T02:25:16.826Z,0.0
2023-04-07T02:30:16.970Z,0.0
2023-04-07T02:35:16.781Z,0.0
2023-04-07T02:40:17.400Z,0.0
2023-04-07T02:45:17.044Z,0.0
2023-04-07T02:50:16.857Z,0.0
2023-04-07T02:55:17.253Z,0.0
2023-04-07T03:00:16.933Z,0.0
2023-04-07T03:05:16.903Z,0.0
2023-04-07T03:10:31.155Z,0.0
2023-04-07T03:15:18.992Z,0.0
2023-04-07T03:20:18.025Z,0.0
2023-04-07T03:25:18.079Z,0.0
2023-04-07T03:30:18.141Z,0.0
2023-04-07T03:35:18.096Z,0.0
2023-04-07T03:40:17.998Z,0.0
2023-04-07T03:45:18.563Z,0.0
2023-04-07T03:50:18.012Z,0.0
2023-04-07T03:55:18.232Z,0.0
2023-04-07T04:00:17.103Z,0.0
2023-04-07T04:05:17.335Z,0.0
2023-04-07T04:10:16.999Z,0.0
2023-04-07T04:15:17.218Z,0.0
2023-04-07T04:20:17.241Z,0.0
2023-04-07T04:25:17.178Z,0.0
2023-04-07T04:30:17.247Z,0.0
2023-04-07T04:35:17.180Z,0.0
2023-04-07T04:40:17.069Z,0.0
2023-04-07T04:45:17.313Z,0.0
2023-04-07T04:50:17.396Z,0.0
2023-04-07T04:55:17.374Z,0.0
2023-04-07T05:00:17.247Z,0.0
2023-04-07T05:05:17.414Z,0.0
2023-04-07T05:10:17.245Z,0.0
2023-04-07T05:15:17.614Z,0.0
2023-04-07T05:20:17.260Z,0.0
2023-04-07T05:25:17.418Z,0.0
2023-04-07T05:30:17.564Z,0.0
2023-04-07T05:35:17.586Z,0.0
2023-04-07T05:40:17.284Z,0.0
2023-04-07T05:45:17.358Z,0.0
2023-04-07T05:50:17.350Z,0.0
2023-04-07T05:55:17.519Z,0.0
2023-04-07T06:00:17.976Z,0.0
2023-04-07T06:05:17.841Z,0.0
2023-04-07T06:10:17.312Z,0.0
2023-04-07T06:15:17.657Z,0.0
2023-04-07T06:20:17.436Z,0.0
2023-04-07T06:25:17.618Z,0.0
2023-04-07T06:30:17.433Z,0.0
2023-04-07T06:35:17.658Z,0.0
2023-04-07T06:40:17.416Z,0.0
2023-04-07T06:45:17.742Z,0.0
2023-04-07T06:50:17.404Z,0.0
2023-04-07T06:55:17.563Z,0.0
2023-04-07T07:00:17.763Z,0.0
2023-04-07T07:05:17.532Z,0.0
2023-04-07T07:10:19.075Z,0.0
2023-04-07T07:15:16.777Z,0.0
2023-04-07T07:20:16.465Z,0.0
2023-04-07T07:25:16.705Z,0.0
2023-04-07T07:30:16.568Z,0.0
2023-04-07T07:35:16.893Z,0.0
2023-04-07T07:40:18.266Z,0.0
2023-04-07T07:45:16.818Z,0.0
2023-04-07T07:50:16.712Z,0.0
2023-04-07T07:55:16.760Z,0.0
2023-04-07T08:00:16.769Z,0.0
2023-04-07T08:05:16.887Z,0.0
2023-04-07T08:10:16.561Z,0.0
2023-04-07T08:15:17.034Z,0.0
2023-04-07T08:20:16.705Z,0.0
2023-04-07T08:25:16.796Z,0.0
2023-04-07T08:30:17.015Z,0.0
2023-04-07T08:35:16.904Z,0.0
2023-04-07T08:40:16.703Z,0.0
2023-04-07T08:45:16.986Z,0.0
2023-04-07T08:50:16.994Z,0.0
2023-04-07T08:55:16.926Z,0.0
2023-04-07T09:00:16.879Z,0.0
2023-04-07T09:05:16.987Z,0.0
2023-04-07T09:10:17.043Z,0.0
2023-04-07T09:15:17.021Z,0.0
2023-04-07T09:20:16.831Z,0.0
2023-04-07T09:25:17.489Z,0.0
2023-04-07T09:30:17.070Z,0.0
2023-04-07T09:35:17.094Z,0.0
2023-04-07T09:40:17.045Z,0.0
2023-04-07T09:45:30.869Z,0.0
2023-04-07T09:50:16.972Z,0.0
2023-04-07T09:55:17.252Z,0.0
2023-04-07T10:00:17.126Z,0.0
2023-04-07T10:05:16.991Z,0.0
2023-04-07T10:10:16.993Z,0.0
2023-04-07T10:15:17.320Z,0.0
2023-04-07T10:20:16.921Z,0.0
2023-04-07T10:25:17.128Z,0.0
2023-04-07T10:30:17.115Z,0.0
2023-04-07T10:35:17.421Z,0.0
2023-04-07T10:40:17.065Z,0.0
2023-04-07T10:45:17.273Z,0.0
2023-04-07T10:50:17.221Z,0.0
2023-04-07T10:55:17.272Z,0.0
2023-04-07T11:00:17.477Z,0.0
2023-04-07T11:05:17.286Z,0.0
2023-04-07T11:10:17.289Z,0.0
2023-04-07T11:15:17.528Z,0.0
2023-04-07T11:20:17.368Z,0.0
2023-04-07T11:25:17.188Z,0.0
2023-04-07T11:30:17.264Z,0.0
2023-04-07T11:35:17.311Z,0.0
2023-04-07T11:40:17.189Z,0.0
2023-04-07T11:45:17.498Z,0.0
2023-04-07T11:50:17.234Z,0.0
2023-04-07T11:55:17.374Z,0.0
2023-04-07T12:00:17.225Z,0.1
2023-04-07T12:05:17.630Z,0.5
2023-04-07T12:10:17.414Z,0.5
2023-04-07T12:15:17.686Z,0.2
2023-04-07T12:20:17.437Z,0.0
2023-04-07T12:25:17.555Z,0.7
2023-04-07T12:30:17.407Z,1.0
2023-04-07T12:35:17.411Z,1.1
2023-04-07T12:40:17.396Z,1.2
2023-04-07T12:45:17.533Z,1.2
2023-04-07T12:50:17.382Z,1.3
2023-04-07T12:55:17.588Z,1.4
2023-04-07T13:00:17.573Z,1.5
2023-04-07T13:05:17.504Z,1.6
2023-04-07T13:10:17.624Z,1.7
2023-04-07T13:15:17.928Z,1.7
2023-04-07T13:20:20.606Z,2.1
2023-04-07T13:25:17.881Z,2.2
2023-04-07T13:30:18.377Z,2.2
2023-04-07T13:35:17.571Z,2.3
2023-04-07T13:40:17.550Z,2.6
2023-04-07T13:45:17.649Z,2.7
2023-04-07T13:50:17.549Z,2.8
2023-04-07T13:55:17.676Z,2.6
2023-04-07T14:00:17.569Z,2.9
2023-04-07T14:05:17.794Z,2.8
2023-04-07T14:10:17.536Z,3.1
2023-04-07T14:15:18.497Z,2.4
2023-04-07T14:20:17.635Z,2.4
2023-04-07T14:25:17.915Z,3.3
2023-04-07T14:30:17.665Z,3.4
2023-04-07T14:35:18.000Z,3.1
2023-04-07T14:40:17.736Z,3.4
2023-04-07T14:45:17.896Z,3.3
2023-04-07T14:50:17.655Z,3.7
2023-04-07T14:55:17.743Z,3.8
2023-04-07T15:00:17.785Z,3.8
2023-04-07T15:05:17.959Z,4.2
2023-04-07T15:10:17.761Z,4.3
2023-04-07T15:15:18.401Z,4.3
2023-04-07T15:20:17.804Z,4.3
2023-04-07T15:25:17.969Z,4.1
2023-04-07T15:30:18.030Z,4.1
2023-04-07T15:35:18.128Z,4.3
2023-04-07T15:40:17.825Z,4.3
2023-04-07T15:45:18.072Z,4.0
2023-04-07T15:50:17.951Z,4.1
2023-04-07T15:55:17.925Z,4.2
2023-04-07T16:00:18.107Z,4.5
2023-04-07T16:05:18.005Z,4.6
2023-04-07T16:10:17.947Z,4.7
2023-04-07T16:15:28.969Z,4.6
2023-04-07T16:20:19.558Z,4.4
2023-04-07T16:25:18.122Z,4.6
2023-04-07T16:30:18.214Z,4.5
2023-04-07T16:35:18.093Z,4.5
2023-04-07T16:40:17.962Z,4.4
2023-04-07T16:45:18.473Z,4.4
2023-04-07T16:50:18.063Z,4.5
2023-04-07T16:55:18.473Z,4.3
2023-04-07T17:00:18.144Z,4.5
2023-04-07T17:05:18.114Z,4.4
2023-04-07T17:10:18.116Z,4.0
2023-04-07T17:15:18.466Z,3.8
2023-04-07T17:20:18.055Z,3.6
2023-04-07T17:25:19.113Z,3.5
2023-04-07T17:30:18.362Z,3.3
2023-04-07T17:35:18.186Z,2.9
2023-04-07T17:40:18.044Z,3.1
2023-04-07T17:45:18.368Z,2.8
2023-04-07T17:50:18.558Z,2.7
2023-04-07T17:55:18.383Z,3.2
2023-04-07T18:00:18.258Z,2.6
2023-04-07T18:05:16.400Z,2.4
2023-04-07T18:10:16.251Z,2.5
2023-04-07T18:15:16.290Z,2.6
2023-04-07T18:20:16.350Z,2.6
2023-04-07T18:25:16.506Z,2.3
2023-04-07T18:30:16.443Z,2.2
2023-04-07T18:35:16.355Z,2.2
2023-04-07T18:40:16.506Z,2.1
2023-04-07T18:45:16.383Z,1.9
2023-04-07T18:50:16.334Z,1.8
2023-04-07T18:55:16.575Z,1.7
2023-04-07T19:00:16.323Z,1.5
2023-04-07T19:05:16.354Z,1.4
2023-04-07T19:10:16.324Z,1.6
2023-04-07T19:15:16.745Z,1.7
2023-04-07T19:20:16.369Z,1.6
2023-04-07T19:25:16.458Z,1.4
2023-04-07T19:30:16.560Z,1.4
2023-04-07T19:35:16.468Z,1.3
2023-04-07T19:40:16.327Z,1.1
2023-04-07T19:45:16.760Z,1.1
2023-04-07T19:50:16.710Z,0.9
2023-04-07T19:55:16.487Z,0.8
2023-04-07T20:00:16.661Z,0.9
2023-04-07T20:05:16.909Z,0.9
2023-04-07T20:10:16.443Z,0.8
2023-04-07T20:15:16.655Z,0.7
2023-04-07T20:20:16.507Z,0.7
2023-04-07T20:25:16.785Z,0.7
2023-04-07T20:30:16.710Z,0.6
2023-04-07T20:35:16.760Z,0.6
2023-04-07T20:40:16.620Z,0.5
2023-04-07T20:45:16.658Z,0.5
2023-04-07T20:50:16.603Z,0.5
2023-04-07T20:55:16.677Z,0.5
2023-04-07T21:00:18.785Z,0.5
2023-04-07T21:05:16.715Z,0.3
2023-04-07T21:10:16.653Z,0.0
2023-04-07T21:15:17.047Z,0.0
2023-04-07T21:20:16.723Z,0.0
2023-04-07T21:25:17.130Z,0.0
2023-04-07T21:30:16.954Z,0.0
2023-04-07T21:35:16.990Z,0.0
2023-04-07T21:40:17.052Z,0.0
2023-04-07T21:45:16.896Z,0.0
2023-04-07T21:50:16.812Z,0.0
2023-04-07T21:55:16.793Z,0.0
2023-04-07T22:00:16.810Z,0.0
2023-04-07T22:05:16.998Z,0.0
2023-04-07T22:10:17.214Z,0.0
2023-04-07T22:15:17.158Z,0.0
2023-04-07T22:20:16.763Z,0.0
2023-04-07T22:25:17.369Z,0.0
2023-04-07T22:30:16.960Z,0.0
2023-04-07T22:35:16.924Z,0.0
2023-04-07T22:40:16.936Z,0.0
2023-04-07T22:45:17.270Z,0.0
2023-04-07T22:50:16.877Z,0.0
2023-04-07T22:55:17.051Z,0.0
2023-04-07T23:00:16.964Z,0.0
2023-04-07T23:05:17.130Z,0.0
2023-04-07T23:10:16.949Z,0.0
2023-04-07T23:15:18.350Z,0.0
2023-04-07T23:20:17.083Z,0.0
2023-04-07T23:25:18.508Z,0.0
2023-04-07T23:30:18.350Z,0.0
2023-04-07T23:35:18.065Z,0.0
2023-04-07T23:40:18.032Z,0.0
2023-04-07T23:45:20.584Z,0.0
2023-04-07T23:50:18.120Z,0.0
2023-04-07T23:55:18.267Z,0.0
